Time;durP1;ratioP1;P1;durP2;ratioP2;P2;SDS_P1;SDS_P2;PMS_P1;PMS_P2;Temp;Humidity;BMP_temperature;BMP_pressure;BME280_temperature;BME280_humidity;BME280_pressure;Samples;Min_cycle;Max_cycle;Signal;HPM_P1;HPM_P2
2021/03/17 00:01:16;;;;;;;34.27;21.00;;;;;;;0.86;93.50;96309.05;1695531;83;21306;-79
2021/03/17 00:03:43;;;;;;;46.90;26.12;;;;;;;0.86;93.51;96306.95;1673157;84;21298;-79
2021/03/17 00:06:13;;;;;;;32.88;20.17;;;;;;;0.86;93.54;96306.44;1662145;84;21294;-79
2021/03/17 00:08:40;;;;;;;40.90;23.15;;;;;;;0.86;93.73;96287.38;1709817;84;21132;-78
2021/03/17 00:11:07;;;;;;;51.73;28.00;;;;;;;0.86;93.89;96293.91;1707351;84;21141;-79
2021/03/17 00:13:34;;;;;;;56.50;32.28;;;;;;;0.87;93.87;96303.32;1686807;84;21274;-79
2021/03/17 00:16:01;;;;;;;49.83;30.30;;;;;;;0.85;93.95;96302.24;1694268;84;21632;-79
2021/03/17 00:18:29;;;;;;;44.33;27.17;;;;;;;0.87;94.07;96292.38;1706775;84;21280;-79
2021/03/17 00:20:57;;;;;;;50.05;29.42;;;;;;;0.85;94.23;96293.62;1694599;84;21633;-79
2021/03/17 00:23:24;;;;;;;54.05;31.50;;;;;;;0.85;94.23;96293.62;1712707;82;21523;-79
2021/03/17 00:25:51;;;;;;;59.75;27.67;;;;;;;0.80;94.29;96283.84;1727769;82;21506;-79
2021/03/17 00:28:18;;;;;;;50.35;28.47;;;;;;;0.86;94.50;96296.52;1736939;82;21518;-79
2021/03/17 00:30:45;;;;;;;58.75;34.73;;;;;;;0.84;94.62;96286.78;1740369;81;21495;-79
2021/03/17 00:33:14;;;;;;;62.30;32.25;;;;;;;0.73;94.69;96284.97;1740350;81;21126;-79
2021/03/17 00:35:43;;;;;;;48.98;26.30;;;;;;;0.85;94.74;96296.23;1727010;81;21515;-78
2021/03/17 00:38:11;;;;;;;56.13;34.10;;;;;;;0.75;94.76;96281.63;1729947;81;21135;-78
2021/03/17 00:40:38;;;;;;;47.25;24.43;;;;;;;0.85;94.84;96298.33;1733927;81;21128;-78
2021/03/17 00:43:06;;;;;;;45.90;24.18;;;;;;;0.85;94.88;96301.45;1732303;81;21128;-78
2021/03/17 00:45:33;;;;;;;57.17;33.85;;;;;;;0.85;94.95;96302.24;1737832;81;21135;-78
2021/03/17 00:48:00;;;;;;;58.68;34.05;;;;;;;0.87;94.81;96300.20;1742888;81;21128;-78
2021/03/17 00:50:27;;;;;;;62.15;35.55;;;;;;;0.88;94.79;96295.77;1725617;81;21537;-79
2021/03/17 00:52:57;;;;;;;54.35;30.88;;;;;;;0.89;94.86;96299.97;1728829;81;21493;-78
2021/03/17 00:55:25;;;;;;;57.63;33.67;;;;;;;0.89;94.84;96294.75;1752427;81;21177;-78
2021/03/17 00:57:52;;;;;;;47.13;25.90;;;;;;;0.88;94.89;96297.88;1738152;81;21365;-78
2021/03/17 01:00:21;;;;;;;46.75;28.65;;;;;;;0.79;95.03;96282.25;1745584;81;21124;-78
2021/03/17 01:02:50;;;;;;;45.55;22.55;;;;;;;0.88;95.08;96291.86;1728141;81;21158;-78
2021/03/17 01:05:18;;;;;;;56.50;34.83;;;;;;;0.87;95.14;96284.55;1695081;84;21507;-78
2021/03/17 01:07:45;;;;;;;62.20;35.92;;;;;;;0.87;94.86;96287.16;1708059;84;21484;-78
2021/03/17 01:10:23;;;;;;;63.38;38.45;;;;;;;0.87;94.97;96291.58;1664712;84;21536;-78
2021/03/17 01:12:50;;;;;;;57.67;35.28;;;;;;;0.88;94.89;96287.95;1686262;84;21234;-78
2021/03/17 01:15:21;;;;;;;48.10;31.20;;;;;;;0.88;94.92;96284.03;1650495;85;21114;-78
2021/03/17 01:17:48;;;;;;;;;;;;;;;0.80;94.96;96264.27;1665236;85;21158;-78
2021/03/17 01:20:17;;;;;;;47.10;26.02;;;;;;;0.91;94.91;96282.27;1653809;87;20126;-78
2021/03/17 01:22:45;;;;;;;56.02;33.80;;;;;;;0.92;95.04;96280.45;1686602;84;21159;-78
2021/03/17 01:25:16;;;;;;;62.08;35.38;;;;;;;0.92;94.92;96286.47;1669529;84;21143;-78
2021/03/17 01:27:43;;;;;;;52.53;31.57;;;;;;;0.92;94.95;96288.28;1673625;84;21269;-78
2021/03/17 01:30:13;;;;;;;48.20;30.85;;;;;;;0.92;94.98;96284.37;1675309;83;21097;-78
2021/03/17 01:32:40;;;;;;;48.23;27.77;;;;;;;0.91;95.10;96280.17;1689568;85;21492;-78
2021/03/17 01:35:12;;;;;;;50.12;30.68;;;;;;;0.91;95.11;96278.88;1708688;84;21151;-78
2021/03/17 01:37:39;;;;;;;50.95;29.72;;;;;;;0.81;95.06;96263.75;1692074;84;21128;-78
2021/03/17 01:40:09;;;;;;;56.63;32.80;;;;;;;0.91;95.01;96278.88;1684904;84;21142;-78
2021/03/17 01:42:36;;;;;;;32.73;19.92;;;;;;;0.90;95.12;96281.98;1691213;84;21589;-78
2021/03/17 01:45:15;;;;;;;33.48;21.05;;;;;;;0.90;95.20;96275.47;1686202;84;21310;-78
2021/03/17 01:47:44;;;;;;;50.43;30.90;;;;;;;0.91;95.25;96269.73;1685620;84;21546;-78
2021/03/17 01:50:17;;;;;;;52.98;31.97;;;;;;;0.91;95.24;96280.97;1692781;84;21138;-78
2021/03/17 01:52:44;;;;;;;46.05;29.48;;;;;;;0.91;95.21;96273.65;1695670;84;21152;-79
2021/03/17 01:55:12;;;;;;;45.45;27.42;;;;;;;0.88;95.29;96282.22;1706322;84;21147;-79
2021/03/17 01:57:40;;;;;;;52.90;31.90;;;;;;;0.88;95.29;96282.22;1694056;84;21197;-79
2021/03/17 02:00:13;;;;;;;58.90;33.70;;;;;;;0.89;95.30;96292.94;1715246;83;21157;-79
2021/03/17 02:02:43;;;;;;;48.48;30.20;;;;;;;0.77;95.32;96266.02;1701027;83;21293;-79
2021/03/17 02:05:15;;;;;;;55.03;33.73;;;;;;;0.87;95.34;96281.14;1690291;84;21139;-80
2021/03/17 02:07:42;;;;;;;51.65;31.40;;;;;;;0.78;94.99;96260.30;1703904;84;21281;-79
2021/03/17 02:13:34;;;;;;;61.35;37.98;;;;;;;0.96;95.00;96273.25;1776671;79;22851;-78
2021/03/17 02:16:27;;;;;;;40.73;24.77;;;;;;;0.91;94.92;96273.65;1742738;81;21515;-79
2021/03/17 02:19:41;;;;;;;38.83;21.57;;;;;;;0.89;95.03;96269.45;1756576;81;21254;-79
2021/03/17 02:22:52;;;;;;;55.12;31.50;;;;;;;0.88;94.98;96276.20;1730266;81;21119;-79
2021/03/17 02:25:37;;;;;;;41.95;25.17;;;;;;;0.89;94.77;96271.27;1757422;81;21154;-80
2021/03/17 02:28:36;;;;;;;54.85;32.80;;;;;;;0.89;94.77;96271.27;1745472;81;21494;-80
2021/03/17 02:31:28;;;;;;;60.40;35.75;;;;;;;0.87;94.70;96270.70;1734142;81;21115;-80
2021/03/17 02:34:09;;;;;;;48.08;27.87;;;;;;;0.86;94.62;96268.61;1757863;81;21618;-80
2021/03/17 02:36:44;;;;;;;53.23;31.52;;;;;;;0.86;94.73;96271.22;1760145;81;21127;-80
2021/03/17 02:39:37;;;;;;;48.52;28.75;;;;;;;0.86;94.78;96275.64;1744213;81;21476;-79
2021/03/17 02:42:19;;;;;;;44.58;27.10;;;;;;;0.84;94.82;96272.43;1743042;81;21120;-80
2021/03/17 02:44:55;;;;;;;44.23;25.48;;;;;;;0.84;94.82;96272.43;1755524;81;21495;-80
2021/03/17 02:47:25;;;;;;;52.53;30.95;;;;;;;0.74;95.01;96261.77;1752604;81;21289;-80
2021/03/17 02:49:56;;;;;;;54.60;32.70;;;;;;;0.82;94.93;96276.58;1738364;81;21138;-79
2021/03/17 02:52:27;;;;;;;52.33;30.35;;;;;;;0.82;94.83;96271.87;1735896;81;21128;-79
2021/03/17 02:54:54;;;;;;;40.38;22.32;;;;;;;0.81;94.86;96268.47;1715494;83;21487;-80
2021/03/17 02:57:25;;;;;;;51.42;31.27;;;;;;;0.84;94.89;96273.23;1749504;81;21128;-80
2021/03/17 02:59:55;;;;;;;43.28;27.58;;;;;;;0.83;94.88;96268.23;1759018;81;21647;-80
2021/03/17 03:02:24;;;;;;;45.17;28.73;;;;;;;0.79;94.81;96258.77;1737426;81;21130;-80
2021/03/17 03:04:53;;;;;;;54.10;31.90;;;;;;;0.83;94.75;96275.55;1744958;81;21120;-80
2021/03/17 03:07:22;;;;;;;50.93;30.57;;;;;;;0.83;94.61;96265.63;1737205;81;21134;-80
2021/03/17 03:09:52;;;;;;;48.65;28.70;;;;;;;0.82;94.63;96271.36;1735515;81;21100;-80
2021/03/17 03:12:20;;;;;;;38.85;23.35;;;;;;;0.81;94.61;96271.58;1738414;81;21103;-80
2021/03/17 03:14:47;;;;;;;42.95;25.35;;;;;;;0.80;94.75;96260.86;1766971;81;21107;-80
2021/03/17 03:17:16;;;;;;;43.85;25.08;;;;;;;0.77;94.94;96258.70;1764534;81;21303;-80
2021/03/17 03:19:50;;;;;;;43.78;27.98;;;;;;;0.78;94.69;96267.61;1764656;81;21250;-80
2021/03/17 03:22:19;;;;;;;50.08;32.05;;;;;;;0.75;94.90;96273.28;1764853;80;21179;-80
2021/03/17 03:24:48;;;;;;;41.68;25.48;;;;;;;0.75;94.90;96273.28;1759319;81;21124;-80
2021/03/17 03:27:16;;;;;;;49.83;30.52;;;;;;;0.73;94.90;96277.94;1760406;81;21112;-80
2021/03/17 03:29:43;;;;;;;48.98;31.02;;;;;;;0.73;94.92;96282.36;1729511;81;21106;-80
2021/03/17 03:32:12;;;;;;;45.55;27.75;;;;;;;0.72;94.94;96277.66;1710570;82;21167;-80
2021/03/17 03:34:39;;;;;;;43.95;26.52;;;;;;;0.72;95.01;96272.95;1728972;83;21095;-80
2021/03/17 03:37:07;;;;;;;47.62;29.90;;;;;;;0.74;94.81;96282.64;1710073;82;21275;-80
2021/03/17 03:39:35;;;;;;;53.55;32.65;;;;;;;0.79;94.74;96291.89;1729093;83;21241;-80
2021/03/17 03:42:02;;;;;;;45.52;27.22;;;;;;;0.77;94.80;96284.80;1728977;83;21131;-80
2021/03/17 03:44:29;;;;;;;50.52;29.82;;;;;;;0.73;94.77;96290.98;1731693;81;21079;-80
2021/03/17 03:46:56;;;;;;;52.45;33.33;;;;;;;0.64;94.59;96266.73;1729277;81;21135;-79
2021/03/17 03:49:24;;;;;;;47.48;25.77;;;;;;;0.64;94.59;96261.52;1716436;83;21154;-80
2021/03/17 03:52:02;;;;;;;48.80;30.12;;;;;;;0.65;94.83;96263.90;1734274;81;21177;-80
2021/03/17 03:54:41;;;;;;;43.95;24.47;;;;;;;0.69;94.99;96296.34;1731179;81;21471;-80
2021/03/17 03:57:24;;;;;;;48.65;29.70;;;;;;;0.67;95.04;96281.94;1734245;81;21099;-80
2021/03/17 03:59:56;;;;;;;40.35;24.65;;;;;;;0.55;95.11;96259.73;1728885;83;21118;-80
2021/03/17 04:02:26;;;;;;;44.50;25.27;;;;;;;0.64;95.19;96277.17;1733782;81;21541;-80
2021/03/17 04:04:56;;;;;;;49.55;30.50;;;;;;;0.57;95.14;96274.16;1724133;82;21148;-79
2021/03/17 04:07:26;;;;;;;35.28;22.65;;;;;;;0.57;95.14;96274.16;1715085;83;21161;-80
2021/03/17 04:09:56;;;;;;;50.88;29.98;;;;;;;0.57;95.26;96281.19;1722002;83;21148;-80
2021/03/17 04:12:26;;;;;;;32.93;19.05;;;;;;;0.55;95.15;96281.39;1706511;83;21186;-80
2021/03/17 04:14:57;;;;;;;39.85;22.10;;;;;;;0.56;95.11;96285.61;1721304;81;21120;-80
2021/03/17 04:17:33;;;;;;;36.15;22.30;;;;;;;0.47;94.75;96272.59;1730298;82;21106;-80
2021/03/17 04:20:08;;;;;;;33.28;18.17;;;;;;;0.47;94.75;96272.59;1726944;81;21111;-80
2021/03/17 04:22:38;;;;;;;56.28;35.30;;;;;;;0.46;95.02;96269.70;1729564;81;21146;-80
2021/03/17 04:25:12;;;;;;;45.95;28.17;;;;;;;0.46;95.02;96269.70;1729299;82;21145;-80
2021/03/17 04:27:43;;;;;;;48.60;30.25;;;;;;;0.56;95.04;96283.00;1725688;82;21111;-80
2021/03/17 04:30:14;;;;;;;52.10;29.63;;;;;;;0.57;94.96;96289.81;1723393;81;21460;-79
2021/03/17 04:32:44;;;;;;;46.18;28.45;;;;;;;0.57;94.92;96281.98;1714028;81;21164;-80
2021/03/17 04:35:13;;;;;;;49.58;29.10;;;;;;;0.59;94.95;96289.08;1709099;81;21520;-80
2021/03/17 04:37:44;;;;;;;52.75;29.45;;;;;;;0.58;94.93;96291.40;1722228;83;21123;-79
2021/03/17 04:40:13;;;;;;;48.85;29.98;;;;;;;0.57;94.93;96281.98;1728758;81;21135;-80
2021/03/17 04:42:42;;;;;;;58.02;34.63;;;;;;;0.56;95.09;96284.31;1722624;83;21119;-80
2021/03/17 04:45:13;;;;;;;52.50;31.57;;;;;;;0.56;95.09;96284.31;1736567;81;21126;-79
2021/03/17 04:47:45;;;;;;;40.30;25.85;;;;;;;0.58;94.94;96289.30;1731368;82;21099;-80
2021/03/17 04:50:17;;;;;;;40.65;24.05;;;;;;;0.45;95.22;96264.20;1733065;82;21142;-79
2021/03/17 04:52:46;;;;;;;48.17;30.30;;;;;;;0.45;95.22;96264.20;1736473;81;21115;-80
2021/03/17 04:55:15;;;;;;;57.70;34.53;;;;;;;0.48;95.14;96266.87;1723981;83;21107;-79
2021/03/17 04:57:45;;;;;;;59.40;35.85;;;;;;;0.54;95.11;96286.32;1731349;81;21486;-80
2021/03/17 05:00:20;;;;;;;45.50;28.15;;;;;;;0.55;94.95;96290.52;1735012;82;21114;-79
2021/03/17 05:02:55;;;;;;;52.43;31.10;;;;;;;0.48;94.80;96272.08;1734716;81;21118;-80
2021/03/17 05:05:24;;;;;;;53.52;31.65;;;;;;;0.48;94.80;96272.08;1730476;83;21119;-80
2021/03/17 05:07:53;;;;;;;44.27;24.27;;;;;;;0.59;94.91;96290.38;1732799;81;21120;-80
2021/03/17 05:10:23;;;;;;;42.17;24.00;;;;;;;0.59;95.03;96285.67;1759989;81;21843;-80
2021/03/17 05:12:51;;;;;;;41.33;24.27;;;;;;;0.56;95.09;96281.70;1762907;81;21131;-79
2021/03/17 05:15:21;;;;;;;50.58;29.65;;;;;;;0.44;95.08;96274.34;1751649;81;21127;-79
2021/03/17 05:17:50;;;;;;;43.58;26.60;;;;;;;0.44;95.08;96274.34;1749491;81;21092;-79
2021/03/17 05:20:22;;;;;;;51.90;32.98;;;;;;;0.56;95.17;96291.31;1753644;81;21468;-80
2021/03/17 05:22:52;;;;;;;49.80;29.55;;;;;;;0.57;94.97;96295.03;1760696;80;21151;-79
2021/03/17 05:25:23;;;;;;;45.85;29.72;;;;;;;0.57;95.11;96298.14;1723964;82;21112;-79
2021/03/17 05:28:03;;;;;;;46.83;26.65;;;;;;;0.58;95.10;96295.83;1691633;84;21513;-79
2021/03/17 05:30:29;;;;;;;35.43;22.05;;;;;;;0.59;95.18;96289.59;1710071;81;21566;-79
2021/03/17 05:32:57;;;;;;;59.35;31.82;;;;;;;0.56;95.23;96293.44;1706683;82;21489;-79
2021/03/17 05:35:25;;;;;;;47.90;30.30;;;;;;;0.52;95.17;96295.39;1706590;81;21668;-80
2021/03/17 05:37:52;;;;;;;54.65;30.82;;;;;;;0.61;95.09;96307.62;1688740;84;21536;-80
2021/03/17 05:40:20;;;;;;;43.35;27.13;;;;;;;0.63;95.14;96301.66;1691079;84;21171;-80
2021/03/17 05:42:47;;;;;;;45.33;27.55;;;;;;;0.59;95.13;96300.81;1687589;84;21163;-80
2021/03/17 05:45:21;;;;;;;44.88;26.68;;;;;;;0.62;95.16;96315.22;1709616;82;21245;-79
2021/03/17 05:47:50;;;;;;;55.70;32.48;;;;;;;0.53;94.93;96304.80;1716100;82;21097;-79
2021/03/17 05:50:22;;;;;;;47.40;28.70;;;;;;;0.53;94.93;96304.80;1720657;83;21173;-79
2021/03/17 05:52:49;;;;;;;51.75;31.93;;;;;;;0.64;95.06;96323.61;1725843;82;21132;-80
2021/03/17 05:55:18;;;;;;;57.17;34.35;;;;;;;0.55;94.92;96310.08;1711353;82;21106;-80
2021/03/17 05:57:47;;;;;;;57.73;33.40;;;;;;;0.69;94.80;96332.86;1713127;82;21184;-80
2021/03/17 06:00:21;;;;;;;56.30;34.03;;;;;;;0.74;94.63;96338.73;1675773;84;21131;-80
2021/03/17 06:02:50;;;;;;;48.08;28.12;;;;;;;0.76;94.54;96330.17;1709088;83;21287;-80
2021/03/17 06:05:21;;;;;;;56.13;34.45;;;;;;;0.77;94.43;96336.47;1725488;83;21125;-80
2021/03/17 06:08:02;;;;;;;52.15;31.15;;;;;;;0.81;94.49;96336.81;1700712;84;21497;-80
2021/03/17 06:10:31;;;;;;;52.60;32.90;;;;;;;0.82;94.24;96330.06;1700515;84;21136;-79
2021/03/17 06:13:14;;;;;;;53.90;33.35;;;;;;;0.84;94.17;96333.24;1726608;81;21134;-79
2021/03/17 06:15:59;;;;;;;48.13;29.70;;;;;;;0.85;93.89;96334.06;1678514;84;21147;-79
2021/03/17 06:18:44;;;;;;;50.38;30.10;;;;;;;0.87;94.02;96342.46;1722611;83;21566;-79
2021/03/17 06:21:17;;;;;;;50.25;30.35;;;;;;;0.87;94.00;96342.46;1696944;83;21160;-79
2021/03/17 06:23:41;;;;;;;44.27;25.70;;;;;;;0.87;93.89;96342.46;1698272;84;21144;-80
2021/03/17 06:26:09;;;;;;;44.65;27.05;;;;;;;0.81;93.80;96328.48;1728420;82;21115;-80
2021/03/17 06:28:37;;;;;;;52.85;31.73;;;;;;;0.81;93.80;96328.48;1700581;84;21102;-80
2021/03/17 06:31:05;;;;;;;44.38;27.30;;;;;;;0.93;93.66;96354.61;1713078;83;21148;-80
2021/03/17 06:33:32;;;;;;;48.02;29.32;;;;;;;0.96;93.64;96354.66;1692794;82;21179;-80
2021/03/17 06:36:13;;;;;;;49.67;32.48;;;;;;;0.97;93.58;96354.44;1712244;81;21110;-80
2021/03/17 06:38:42;;;;;;;46.55;27.87;;;;;;;1.01;93.49;96363.44;1698429;84;21171;-79
2021/03/17 06:41:11;;;;;;;47.35;29.18;;;;;;;1.01;93.35;96364.73;1697128;83;21124;-79
2021/03/17 06:43:43;;;;;;;47.65;31.40;;;;;;;1.01;93.31;96366.05;1712458;82;21280;-79
2021/03/17 06:46:17;;;;;;;50.83;32.00;;;;;;;1.02;93.21;96358.50;1705645;83;21091;-79
2021/03/17 06:48:45;;;;;;;52.33;32.42;;;;;;;1.08;93.21;96363.32;1703811;82;21465;-80
2021/03/17 06:51:21;;;;;;;47.15;28.80;;;;;;;1.09;93.08;96361.00;1728132;82;21515;-79
2021/03/17 06:53:55;;;;;;;49.75;29.98;;;;;;;1.12;92.99;96364.45;1716755;83;21449;-79
2021/03/17 06:56:34;;;;;;;45.33;27.37;;;;;;;1.21;92.96;96370.16;1713982;82;21130;-79
2021/03/17 06:59:05;;;;;;;50.28;28.70;;;;;;;1.27;92.76;96369.25;1696308;84;21551;-80
2021/03/17 07:01:46;;;;;;;40.85;24.45;;;;;;;1.26;92.61;96372.87;1728918;83;21159;-80
2021/03/17 07:04:21;;;;;;;47.00;27.93;;;;;;;1.23;92.58;96374.64;1700231;84;21143;-80
2021/03/17 07:07:01;;;;;;;51.10;30.02;;;;;;;1.29;92.62;96375.06;1728799;83;21155;-80
2021/03/17 07:09:31;;;;;;;49.70;31.05;;;;;;;1.36;92.57;96365.30;1688122;84;21148;-80
2021/03/17 07:12:11;;;;;;;46.25;27.87;;;;;;;1.42;92.46;96381.39;1728854;82;21150;-80
2021/03/17 07:14:46;;;;;;;43.25;27.55;;;;;;;1.53;92.39;96377.97;1728771;83;21114;-80
2021/03/17 07:17:28;;;;;;;43.45;27.22;;;;;;;1.65;92.08;96373.55;1738703;81;21260;-80
2021/03/17 07:19:55;;;;;;;40.95;24.12;;;;;;;1.67;91.67;96379.84;1700627;84;21153;-80
2021/03/17 07:22:24;;;;;;;45.75;28.65;;;;;;;1.72;91.59;96374.24;1700236;83;21554;-80
2021/03/17 07:25:04;;;;;;;42.67;25.97;;;;;;;1.73;91.17;96374.52;1728392;83;21130;-80
2021/03/17 07:27:35;;;;;;;48.25;30.40;;;;;;;1.85;91.11;96376.34;1700420;84;21541;-80
2021/03/17 07:30:08;;;;;;;40.00;24.43;;;;;;;1.93;91.06;96383.31;1738852;81;21135;-80
2021/03/17 07:33:03;;;;;;;40.15;24.23;;;;;;;2.11;90.48;96381.58;1733996;83;21506;-80
2021/03/17 07:35:35;;;;;;;43.08;27.75;;;;;;;2.16;90.23;96382.50;1733283;81;21495;-79
2021/03/17 07:38:12;;;;;;;36.58;23.55;;;;;;;2.20;90.06;96377.08;1733798;83;21160;-79
2021/03/17 07:40:45;;;;;;;43.05;27.37;;;;;;;2.29;90.10;96380.14;1733732;83;21302;-79
2021/03/17 07:43:14;;;;;;;41.85;25.48;;;;;;;2.25;89.37;96385.05;1733038;81;21095;-79
2021/03/17 07:45:42;;;;;;;35.75;21.95;;;;;;;2.40;89.73;96391.09;1733684;81;21178;-79
2021/03/17 07:48:13;;;;;;;32.48;21.50;;;;;;;2.55;89.33;96378.31;1734215;81;21273;-79
2021/03/17 07:50:42;;;;;;;35.58;22.20;;;;;;;2.60;88.57;96381.53;1757762;81;21080;-79
2021/03/17 07:53:25;;;;;;;33.15;22.10;;;;;;;2.56;87.86;96384.34;1706551;84;21136;-79
2021/03/17 07:55:56;;;;;;;35.80;23.47;;;;;;;2.47;87.62;96390.95;1697929;84;21175;-80
2021/03/17 07:58:23;;;;;;;42.23;23.98;;;;;;;2.42;87.53;96392.97;1707886;84;21155;-80
2021/03/17 08:00:51;;;;;;;36.42;22.95;;;;;;;2.52;88.06;96393.66;1739576;82;21118;-80
2021/03/17 08:03:20;;;;;;;35.85;23.47;;;;;;;2.60;88.25;96397.23;1713771;82;21482;-80
2021/03/17 08:05:48;;;;;;;31.80;21.20;;;;;;;2.65;87.95;96395.49;1729798;83;21133;-80
2021/03/17 08:08:16;;;;;;;37.10;24.18;;;;;;;2.75;87.93;96398.83;1730616;82;21133;-80
2021/03/17 08:10:46;;;;;;;31.15;19.62;;;;;;;2.71;87.19;96397.71;1741647;81;21146;-80
2021/03/17 08:13:14;;;;;;;33.35;21.60;;;;;;;2.71;87.00;96398.22;1734745;83;21616;-80
2021/03/17 08:15:44;;;;;;;30.72;18.40;;;;;;;2.61;86.28;96398.81;1716505;83;21175;-80
2021/03/17 08:18:36;;;;;;;27.32;16.80;;;;;;;2.61;86.38;96398.81;1734733;82;21125;-80
2021/03/17 08:21:04;;;;;;;35.05;21.33;;;;;;;2.58;86.41;96400.08;1729322;83;21682;-80
2021/03/17 08:23:45;;;;;;;35.23;22.20;;;;;;;2.51;86.22;96406.46;1732344;83;21094;-80
2021/03/17 08:26:23;;;;;;;30.72;19.85;;;;;;;2.50;86.16;96402.25;1732586;83;21462;-79
2021/03/17 08:28:54;;;;;;;34.58;22.10;;;;;;;2.44;85.83;96409.73;1745850;81;21254;-80
2021/03/17 08:31:42;;;;;;;35.70;21.10;;;;;;;2.46;85.99;96414.22;1760077;81;21313;-80
2021/03/17 08:34:23;;;;;;;35.80;22.62;;;;;;;2.50;86.13;96410.11;1753001;81;21104;-79
2021/03/17 08:36:54;;;;;;;34.92;20.92;;;;;;;2.55;86.12;96410.23;1756375;81;21299;-80
2021/03/17 08:39:39;;;;;;;30.23;18.85;;;;;;;2.61;86.24;96407.98;1763184;81;21277;-79
2021/03/17 08:42:17;;;;;;;31.55;19.27;;;;;;;2.71;86.10;96413.41;1756848;81;21657;-80
2021/03/17 08:44:47;;;;;;;33.65;19.67;;;;;;;3.05;86.54;96412.98;1753007;81;21642;-80
2021/03/17 08:47:30;;;;;;;;;;;;;;;3.48;86.73;96403.75;1760169;81;21250;-80
2021/03/17 08:50:19;;;;;;;33.10;20.45;;;;;;;3.81;86.36;96406.89;1763149;81;20424;-80
2021/03/17 08:52:49;;;;;;;30.17;19.40;;;;;;;3.87;85.05;96413.79;1747306;81;21123;-79
2021/03/17 08:55:38;;;;;;;30.02;17.75;;;;;;;3.70;84.20;96410.39;1730857;82;21116;-80
2021/03/17 08:58:08;;;;;;;32.40;20.65;;;;;;;3.49;83.75;96410.05;1731862;82;21132;-80
2021/03/17 09:01:02;;;;;;;26.83;17.53;;;;;;;3.37;83.75;96410.64;1733216;82;21113;-80
2021/03/17 09:03:40;;;;;;;28.55;17.73;;;;;;;3.54;84.44;96415.40;1750285;81;21150;-79
2021/03/17 09:06:24;;;;;;;26.02;16.12;;;;;;;3.74;84.21;96407.56;1755917;81;21147;-79
2021/03/17 09:09:06;;;;;;;27.45;18.73;;;;;;;3.71;83.28;96410.15;1743316;81;21249;-80
2021/03/17 09:11:39;;;;;;;27.40;18.52;;;;;;;3.46;82.36;96412.37;1737791;81;21202;-80
2021/03/17 09:14:09;;;;;;;30.00;18.82;;;;;;;3.31;82.62;96403.74;1739463;81;21159;-81
2021/03/17 09:16:41;;;;;;;29.40;17.95;;;;;;;3.28;82.85;96411.56;1736340;83;21457;-80
2021/03/17 09:19:14;;;;;;;25.05;16.17;;;;;;;3.34;83.05;96411.13;1692708;84;21163;-80
2021/03/17 09:21:45;;;;;;;27.62;16.87;;;;;;;3.38;82.54;96407.02;1703929;83;21204;-80
2021/03/17 09:24:34;;;;;;;25.70;17.40;;;;;;;3.31;82.07;96416.84;1686532;84;21104;-80
2021/03/17 09:27:08;;;;;;;25.82;17.17;;;;;;;3.38;82.67;96418.81;1685579;85;21170;-80
2021/03/17 09:29:37;;;;;;;23.10;15.35;;;;;;;3.72;83.10;96422.73;1688143;84;21139;-80
2021/03/17 09:32:06;;;;;;;24.40;14.13;;;;;;;4.16;83.22;96416.56;1686313;85;21209;-80
2021/03/17 09:34:36;;;;;;;20.85;13.55;;;;;;;4.73;83.66;96414.91;1686340;85;21289;-80
2021/03/17 09:37:05;;;;;;;22.00;15.10;;;;;;;5.08;82.96;96412.93;1686432;84;21258;-80
2021/03/17 09:39:34;;;;;;;20.48;13.90;;;;;;;5.02;81.54;96414.17;1692106;84;21111;-80
2021/03/17 09:42:02;;;;;;;21.20;13.68;;;;;;;4.95;80.75;96417.53;1683016;84;21206;-80
2021/03/17 09:44:29;;;;;;;21.00;14.47;;;;;;;4.72;79.94;96421.72;1680603;85;21174;-80
2021/03/17 09:46:56;;;;;;;21.97;14.00;;;;;;;4.42;78.71;96420.84;1676101;84;21142;-80
2021/03/17 09:49:27;;;;;;;21.52;13.13;;;;;;;4.32;79.46;96423.33;1685485;84;21630;-80
2021/03/17 09:52:01;;;;;;;;;;;;;;;4.36;79.94;96423.11;1692396;84;21183;-80
2021/03/17 09:54:32;;;;;;;18.65;11.50;;;;;;;4.50;80.20;96432.73;1684878;84;20180;-80
2021/03/17 09:57:06;;;;;;;19.40;11.85;;;;;;;4.64;80.16;96427.39;1676072;84;21155;-80
2021/03/17 09:59:46;;;;;;;17.95;11.97;;;;;;;4.72;79.33;96425.14;1687493;84;21173;-80
2021/03/17 10:02:25;;;;;;;18.65;11.95;;;;;;;4.69;78.66;96422.22;1729206;81;21260;-80
2021/03/17 10:05:01;;;;;;;16.52;10.85;;;;;;;4.56;78.24;96423.38;1725988;82;21287;-79
2021/03/17 10:07:32;;;;;;;18.00;10.90;;;;;;;4.53;77.65;96423.08;1735965;83;21174;-79
2021/03/17 10:10:00;;;;;;;18.10;11.40;;;;;;;4.55;77.34;96420.48;1748439;81;21132;-79
2021/03/17 10:12:32;;;;;;;17.92;11.73;;;;;;;4.50;77.07;96429.59;1746348;81;21119;-79
2021/03/17 10:15:04;;;;;;;23.50;12.43;;;;;;;4.34;77.08;96437.00;1764240;81;21150;-79
2021/03/17 10:17:33;;;;;;;19.25;12.55;;;;;;;4.07;76.78;96441.61;1764681;81;21172;-79
2021/03/17 10:20:08;;;;;;;22.30;12.68;;;;;;;3.81;76.93;96437.05;1765038;81;21126;-79
2021/03/17 10:22:35;;;;;;;17.98;10.85;;;;;;;3.73;77.52;96441.37;1728440;82;21356;-79
2021/03/17 10:25:16;;;;;;;21.05;12.30;;;;;;;3.69;77.33;96434.50;1737680;81;21597;-80
2021/03/17 10:27:50;;;;;;;18.70;11.38;;;;;;;3.69;77.78;96440.27;1686084;84;21101;-80
2021/03/17 10:30:42;;;;;;;21.45;13.22;;;;;;;3.82;77.82;96441.26;1681960;84;21441;-80
2021/03/17 10:33:16;;;;;;;19.27;12.00;;;;;;;4.03;78.20;96436.58;1713221;83;21499;-80
2021/03/17 10:35:44;;;;;;;17.02;10.72;;;;;;;4.58;77.70;96430.48;1683318;83;21163;-80
2021/03/17 10:38:12;;;;;;;18.55;12.25;;;;;;;5.15;77.14;96430.59;1718492;81;21475;-80
2021/03/17 10:40:40;;;;;;;17.27;11.15;;;;;;;5.00;74.75;96432.02;1685979;84;21155;-80
2021/03/17 10:43:14;;;;;;;17.00;11.15;;;;;;;4.58;73.52;96424.45;1720246;82;21524;-80
2021/03/17 10:45:51;;;;;;;18.77;11.57;;;;;;;4.35;74.64;96428.08;1726201;83;21480;-81
2021/03/17 10:48:22;;;;;;;17.98;10.72;;;;;;;4.23;74.90;96426.11;1697584;84;21157;-80
2021/03/17 10:50:52;;;;;;;16.57;11.08;;;;;;;4.05;74.27;96429.26;1697994;83;21136;-80
2021/03/17 10:53:23;;;;;;;17.95;10.75;;;;;;;4.13;74.97;96425.45;1706123;84;21139;-81
2021/03/17 10:55:53;;;;;;;19.55;11.22;;;;;;;4.43;75.03;96423.22;1728756;83;21588;-81
2021/03/17 10:58:26;;;;;;;17.55;11.30;;;;;;;4.60;74.14;96421.84;1730991;82;21273;-80
2021/03/17 11:00:56;;;;;;;17.73;10.35;;;;;;;4.54;73.96;96424.67;1731717;82;21088;-81
2021/03/17 11:03:31;;;;;;;17.62;10.53;;;;;;;4.93;74.46;96416.20;1727672;82;21094;-81
2021/03/17 11:06:20;;;;;;;18.80;11.00;;;;;;;5.18;74.00;96414.32;1700368;84;21142;-81
2021/03/17 11:09:07;;;;;;;17.62;11.00;;;;;;;5.13;73.62;96413.77;1729442;82;21134;-80
2021/03/17 11:11:53;;;;;;;15.20;9.98;;;;;;;4.86;72.38;96409.02;1690685;84;21159;-80
2021/03/17 11:14:35;;;;;;;14.18;10.08;;;;;;;4.62;71.73;96409.27;1695195;83;21120;-81
2021/03/17 11:17:08;;;;;;;17.45;11.35;;;;;;;4.37;71.87;96415.02;1711125;83;21092;-80
2021/03/17 11:19:35;;;;;;;16.20;9.70;;;;;;;4.47;72.94;96414.33;1703964;83;21114;-80
2021/03/17 11:22:03;;;;;;;14.63;9.38;;;;;;;4.96;72.20;96411.23;1689032;83;21162;-80
2021/03/17 11:24:30;;;;;;;14.55;9.25;;;;;;;5.44;73.53;96403.52;1688590;84;21200;-81
2021/03/17 11:26:58;;;;;;;16.90;9.73;;;;;;;5.54;71.64;96411.50;1721771;82;21125;-80
2021/03/17 11:29:29;;;;;;;17.57;10.40;;;;;;;5.40;71.43;96416.91;1711074;83;21153;-81
2021/03/17 11:32:08;;;;;;;14.55;8.85;;;;;;;5.25;70.88;96414.93;1686186;84;21144;-81
2021/03/17 11:34:35;;;;;;;16.45;9.48;;;;;;;5.01;69.98;96409.96;1726496;81;21116;-80
2021/03/17 11:37:03;;;;;;;17.35;9.65;;;;;;;4.65;70.03;96410.63;1680840;83;21132;-80
2021/03/17 11:39:30;;;;;;;12.85;8.50;;;;;;;4.55;70.45;96422.31;1720362;83;21273;-80
2021/03/17 11:41:58;;;;;;;16.62;9.25;;;;;;;4.57;71.08;96422.86;1700576;83;21488;-80
2021/03/17 11:44:25;;;;;;;14.43;7.67;;;;;;;4.67;71.12;96413.80;1728561;82;21083;-80
2021/03/17 11:46:52;;;;;;;13.65;7.55;;;;;;;4.85;71.28;96413.99;1737744;82;21126;-78
2021/03/17 11:49:20;;;;;;;12.93;6.80;;;;;;;4.95;70.69;96410.17;1732078;82;21147;-78
2021/03/17 11:51:47;;;;;;;13.18;7.20;;;;;;;5.02;69.98;96403.66;1706412;84;21138;-78
2021/03/17 11:54:15;;;;;;;16.40;9.80;;;;;;;5.01;68.96;96409.17;1694522;84;21097;-78